sensor_id;sensor_type;location;lat;lon;timestamp;temperature;humidity
59973;DHT22;55298;-36.624;-64.282;2023-06-05T00:00:43;11.20;48.40
59973;DHT22;55298;-36.624;-64.282;2023-06-05T00:03:12;11.30;48.80
59973;DHT22;55298;-36.624;-64.282;2023-06-05T00:05:40;11.20;48.90
59973;DHT22;55298;-36.624;-64.282;2023-06-05T00:08:08;11.20;48.80
59973;DHT22;55298;-36.624;-64.282;2023-06-05T00:10:35;11.30;48.50
59973;DHT22;55298;-36.624;-64.282;2023-06-05T00:13:03;11.20;47.90
59973;DHT22;55298;-36.624;-64.282;2023-06-05T00:15:31;11.20;46.60
59973;DHT22;55298;-36.624;-64.282;2023-06-05T00:18:03;11.20;47.00
59973;DHT22;55298;-36.624;-64.282;2023-06-05T00:20:32;11.20;46.90
59973;DHT22;55298;-36.624;-64.282;2023-06-05T00:22:59;11.20;46.70
59973;DHT22;55298;-36.624;-64.282;2023-06-05T00:25:27;11.20;46.80
59973;DHT22;55298;-36.624;-64.282;2023-06-05T00:27:55;11.20;48.00
59973;DHT22;55298;-36.624;-64.282;2023-06-05T00:30:24;11.00;48.40
59973;DHT22;55298;-36.624;-64.282;2023-06-05T00:32:52;11.00;48.50
59973;DHT22;55298;-36.624;-64.282;2023-06-05T00:35:21;10.90;48.60
59973;DHT22;55298;-36.624;-64.282;2023-06-05T00:37:49;10.70;48.60
59973;DHT22;55298;-36.624;-64.282;2023-06-05T00:40:17;10.70;48.70
59973;DHT22;55298;-36.624;-64.282;2023-06-05T00:42:46;10.60;48.90
59973;DHT22;55298;-36.624;-64.282;2023-06-05T00:45:13;10.50;48.90
59973;DHT22;55298;-36.624;-64.282;2023-06-05T00:47:41;10.50;49.00
59973;DHT22;55298;-36.624;-64.282;2023-06-05T00:50:11;10.40;49.60
59973;DHT22;55298;-36.624;-64.282;2023-06-05T00:52:39;10.40;49.90
59973;DHT22;55298;-36.624;-64.282;2023-06-05T00:55:08;10.30;50.00
59973;DHT22;55298;-36.624;-64.282;2023-06-05T00:57:36;10.30;50.00
59973;DHT22;55298;-36.624;-64.282;2023-06-05T01:00:06;10.20;50.90
59973;DHT22;55298;-36.624;-64.282;2023-06-05T01:02:37;10.10;50.70
59973;DHT22;55298;-36.624;-64.282;2023-06-05T01:05:05;10.00;51.10
59973;DHT22;55298;-36.624;-64.282;2023-06-05T01:07:34;10.00;51.00
59973;DHT22;55298;-36.624;-64.282;2023-06-05T01:10:07;10.00;51.10
59973;DHT22;55298;-36.624;-64.282;2023-06-05T01:12:55;9.90;51.10
59973;DHT22;55298;-36.624;-64.282;2023-06-05T01:15:29;9.90;51.10
59973;DHT22;55298;-36.624;-64.282;2023-06-05T01:17:59;9.90;51.50
59973;DHT22;55298;-36.624;-64.282;2023-06-05T01:20:35;9.80;51.70
59973;DHT22;55298;-36.624;-64.282;2023-06-05T01:23:06;9.80;51.40
59973;DHT22;55298;-36.624;-64.282;2023-06-05T01:25:34;9.90;51.80
59973;DHT22;55298;-36.624;-64.282;2023-06-05T01:28:16;9.80;51.90
59973;DHT22;55298;-36.624;-64.282;2023-06-05T01:30:57;9.70;51.90
59973;DHT22;55298;-36.624;-64.282;2023-06-05T01:33:32;9.70;52.00
59973;DHT22;55298;-36.624;-64.282;2023-06-05T01:36:03;9.70;52.30
59973;DHT22;55298;-36.624;-64.282;2023-06-05T01:38:34;9.70;52.10
59973;DHT22;55298;-36.624;-64.282;2023-06-05T01:41:04;9.70;52.40
59973;DHT22;55298;-36.624;-64.282;2023-06-05T01:43:33;9.70;52.40
59973;DHT22;55298;-36.624;-64.282;2023-06-05T01:46:01;9.70;52.50
59973;DHT22;55298;-36.624;-64.282;2023-06-05T01:48:29;9.60;52.40
59973;DHT22;55298;-36.624;-64.282;2023-06-05T01:50:59;9.60;52.50
59973;DHT22;55298;-36.624;-64.282;2023-06-05T01:53:28;9.60;53.00
59973;DHT22;55298;-36.624;-64.282;2023-06-05T01:55:56;9.60;53.00
59973;DHT22;55298;-36.624;-64.282;2023-06-05T01:58:25;9.60;53.00
59973;DHT22;55298;-36.624;-64.282;2023-06-05T02:00:56;9.50;52.80
59973;DHT22;55298;-36.624;-64.282;2023-06-05T02:03:24;9.50;53.20
59973;DHT22;55298;-36.624;-64.282;2023-06-05T02:05:52;9.50;53.70
59973;DHT22;55298;-36.624;-64.282;2023-06-05T02:08:21;9.40;53.20
59973;DHT22;55298;-36.624;-64.282;2023-06-05T02:10:49;9.40;53.60
59973;DHT22;55298;-36.624;-64.282;2023-06-05T02:13:20;9.50;53.40
59973;DHT22;55298;-36.624;-64.282;2023-06-05T02:15:49;9.30;53.40
59973;DHT22;55298;-36.624;-64.282;2023-06-05T02:18:22;9.30;53.20
59973;DHT22;55298;-36.624;-64.282;2023-06-05T02:20:55;9.30;53.40
59973;DHT22;55298;-36.624;-64.282;2023-06-05T02:23:23;9.20;53.40
59973;DHT22;55298;-36.624;-64.282;2023-06-05T02:25:51;9.20;53.60
59973;DHT22;55298;-36.624;-64.282;2023-06-05T02:28:19;9.20;53.70
59973;DHT22;55298;-36.624;-64.282;2023-06-05T02:30:47;9.20;53.70
59973;DHT22;55298;-36.624;-64.282;2023-06-05T02:33:15;9.20;53.60
59973;DHT22;55298;-36.624;-64.282;2023-06-05T02:35:43;9.20;53.20
59973;DHT22;55298;-36.624;-64.282;2023-06-05T02:38:11;9.10;53.60
59973;DHT22;55298;-36.624;-64.282;2023-06-05T02:40:39;9.20;53.70
59973;DHT22;55298;-36.624;-64.282;2023-06-05T02:43:08;9.20;54.00
59973;DHT22;55298;-36.624;-64.282;2023-06-05T02:45:39;9.10;54.20
59973;DHT22;55298;-36.624;-64.282;2023-06-05T02:48:06;9.10;54.20
59973;DHT22;55298;-36.624;-64.282;2023-06-05T02:50:34;9.10;54.50
59973;DHT22;55298;-36.624;-64.282;2023-06-05T02:53:02;9.10;54.50
59973;DHT22;55298;-36.624;-64.282;2023-06-05T02:55:30;9.00;54.80
59973;DHT22;55298;-36.624;-64.282;2023-06-05T02:57:59;9.00;54.60
59973;DHT22;55298;-36.624;-64.282;2023-06-05T03:00:27;9.00;55.00
59973;DHT22;55298;-36.624;-64.282;2023-06-05T03:02:55;8.90;54.80
59973;DHT22;55298;-36.624;-64.282;2023-06-05T03:05:22;8.90;54.60
59973;DHT22;55298;-36.624;-64.282;2023-06-05T03:07:52;8.90;54.90
59973;DHT22;55298;-36.624;-64.282;2023-06-05T03:10:21;8.90;55.00
59973;DHT22;55298;-36.624;-64.282;2023-06-05T03:12:49;8.90;54.60
59973;DHT22;55298;-36.624;-64.282;2023-06-05T03:15:17;8.80;55.00
59973;DHT22;55298;-36.624;-64.282;2023-06-05T03:17:45;8.90;55.20
59973;DHT22;55298;-36.624;-64.282;2023-06-05T03:20:13;8.90;55.20
59973;DHT22;55298;-36.624;-64.282;2023-06-05T03:22:41;8.90;55.20
59973;DHT22;55298;-36.624;-64.282;2023-06-05T03:25:09;8.80;55.00
59973;DHT22;55298;-36.624;-64.282;2023-06-05T03:27:37;8.80;55.40
59973;DHT22;55298;-36.624;-64.282;2023-06-05T03:30:05;8.80;55.60
59973;DHT22;55298;-36.624;-64.282;2023-06-05T03:32:35;8.80;55.50
59973;DHT22;55298;-36.624;-64.282;2023-06-05T03:35:03;8.80;55.40
59973;DHT22;55298;-36.624;-64.282;2023-06-05T03:37:31;8.80;55.30
59973;DHT22;55298;-36.624;-64.282;2023-06-05T03:39:58;8.80;55.50
59973;DHT22;55298;-36.624;-64.282;2023-06-05T03:42:26;8.90;55.40
59973;DHT22;55298;-36.624;-64.282;2023-06-05T03:44:54;9.00;55.50
59973;DHT22;55298;-36.624;-64.282;2023-06-05T03:47:22;8.90;55.20
59973;DHT22;55298;-36.624;-64.282;2023-06-05T03:49:51;8.90;54.90
59973;DHT22;55298;-36.624;-64.282;2023-06-05T03:52:19;9.00;54.90
59973;DHT22;55298;-36.624;-64.282;2023-06-05T03:54:51;9.00;54.70
59973;DHT22;55298;-36.624;-64.282;2023-06-05T03:57:22;9.00;54.70
59973;DHT22;55298;-36.624;-64.282;2023-06-05T03:59:51;9.10;54.40
59973;DHT22;55298;-36.624;-64.282;2023-06-05T04:02:20;9.10;54.00
59973;DHT22;55298;-36.624;-64.282;2023-06-05T04:04:48;9.20;54.10
59973;DHT22;55298;-36.624;-64.282;2023-06-05T04:07:17;9.20;53.40
59973;DHT22;55298;-36.624;-64.282;2023-06-05T04:09:45;9.30;53.10
59973;DHT22;55298;-36.624;-64.282;2023-06-05T04:12:13;9.30;53.20
59973;DHT22;55298;-36.624;-64.282;2023-06-05T04:14:41;9.40;53.30
59973;DHT22;55298;-36.624;-64.282;2023-06-05T04:17:09;9.40;53.10
59973;DHT22;55298;-36.624;-64.282;2023-06-05T04:19:37;9.40;52.80
59973;DHT22;55298;-36.624;-64.282;2023-06-05T04:22:05;9.40;52.80
59973;DHT22;55298;-36.624;-64.282;2023-06-05T04:24:33;9.40;52.70
59973;DHT22;55298;-36.624;-64.282;2023-06-05T04:27:01;9.40;52.60
59973;DHT22;55298;-36.624;-64.282;2023-06-05T04:29:29;9.50;52.50
59973;DHT22;55298;-36.624;-64.282;2023-06-05T04:31:59;9.50;52.50
59973;DHT22;55298;-36.624;-64.282;2023-06-05T04:34:27;9.60;52.60
59973;DHT22;55298;-36.624;-64.282;2023-06-05T04:36:55;9.50;52.30
59973;DHT22;55298;-36.624;-64.282;2023-06-05T04:39:23;9.50;52.30
59973;DHT22;55298;-36.624;-64.282;2023-06-05T04:41:51;9.50;52.30
59973;DHT22;55298;-36.624;-64.282;2023-06-05T04:44:19;9.50;52.50
59973;DHT22;55298;-36.624;-64.282;2023-06-05T04:46:47;9.40;52.50
59973;DHT22;55298;-36.624;-64.282;2023-06-05T04:49:15;9.50;52.50
59973;DHT22;55298;-36.624;-64.282;2023-06-05T04:51:44;9.50;52.40
59973;DHT22;55298;-36.624;-64.282;2023-06-05T04:54:12;9.40;52.30
59973;DHT22;55298;-36.624;-64.282;2023-06-05T04:56:40;9.40;52.40
59973;DHT22;55298;-36.624;-64.282;2023-06-05T04:59:08;9.40;52.40
59973;DHT22;55298;-36.624;-64.282;2023-06-05T05:01:36;9.40;52.40
59973;DHT22;55298;-36.624;-64.282;2023-06-05T05:04:04;9.40;52.30
59973;DHT22;55298;-36.624;-64.282;2023-06-05T05:06:31;9.40;52.80
59973;DHT22;55298;-36.624;-64.282;2023-06-05T05:09:00;9.30;52.70
59973;DHT22;55298;-36.624;-64.282;2023-06-05T05:11:28;9.30;52.80
59973;DHT22;55298;-36.624;-64.282;2023-06-05T05:13:56;9.30;52.90
59973;DHT22;55298;-36.624;-64.282;2023-06-05T05:16:24;9.30;53.20
59973;DHT22;55298;-36.624;-64.282;2023-06-05T05:18:52;9.20;53.30
59973;DHT22;55298;-36.624;-64.282;2023-06-05T05:21:20;9.20;53.40
59973;DHT22;55298;-36.624;-64.282;2023-06-05T05:23:52;9.20;53.50
59973;DHT22;55298;-36.624;-64.282;2023-06-05T05:26:20;9.10;53.70
59973;DHT22;55298;-36.624;-64.282;2023-06-05T05:28:48;9.10;53.80
59973;DHT22;55298;-36.624;-64.282;2023-06-05T05:31:16;9.00;54.20
59973;DHT22;55298;-36.624;-64.282;2023-06-05T05:33:44;9.00;54.10
59973;DHT22;55298;-36.624;-64.282;2023-06-05T05:36:12;9.00;54.30
59973;DHT22;55298;-36.624;-64.282;2023-06-05T05:38:42;9.00;54.50
59973;DHT22;55298;-36.624;-64.282;2023-06-05T05:41:10;8.90;54.40
59973;DHT22;55298;-36.624;-64.282;2023-06-05T05:43:37;8.90;54.70
59973;DHT22;55298;-36.624;-64.282;2023-06-05T05:46:05;8.90;54.90
59973;DHT22;55298;-36.624;-64.282;2023-06-05T05:48:36;8.80;55.10
59973;DHT22;55298;-36.624;-64.282;2023-06-05T05:51:06;8.80;55.10
59973;DHT22;55298;-36.624;-64.282;2023-06-05T05:53:34;8.80;55.00
59973;DHT22;55298;-36.624;-64.282;2023-06-05T05:56:03;8.80;54.90
59973;DHT22;55298;-36.624;-64.282;2023-06-05T05:58:32;8.80;54.70
59973;DHT22;55298;-36.624;-64.282;2023-06-05T06:01:00;8.90;54.70
59973;DHT22;55298;-36.624;-64.282;2023-06-05T06:03:27;8.90;54.70
59973;DHT22;55298;-36.624;-64.282;2023-06-05T06:05:55;8.90;54.70
59973;DHT22;55298;-36.624;-64.282;2023-06-05T06:08:23;8.90;54.60
59973;DHT22;55298;-36.624;-64.282;2023-06-05T06:10:53;8.90;54.80
59973;DHT22;55298;-36.624;-64.282;2023-06-05T06:13:21;9.00;55.00
59973;DHT22;55298;-36.624;-64.282;2023-06-05T06:15:49;9.00;54.90
59973;DHT22;55298;-36.624;-64.282;2023-06-05T06:18:17;9.00;54.80
59973;DHT22;55298;-36.624;-64.282;2023-06-05T06:20:45;9.00;55.40
59973;DHT22;55298;-36.624;-64.282;2023-06-05T06:23:14;8.90;54.80
59973;DHT22;55298;-36.624;-64.282;2023-06-05T06:25:42;8.90;54.60
59973;DHT22;55298;-36.624;-64.282;2023-06-05T06:28:09;8.90;54.50
59973;DHT22;55298;-36.624;-64.282;2023-06-05T06:30:37;8.90;54.60
59973;DHT22;55298;-36.624;-64.282;2023-06-05T06:33:05;8.90;54.60
59973;DHT22;55298;-36.624;-64.282;2023-06-05T06:35:33;8.80;54.70
59973;DHT22;55298;-36.624;-64.282;2023-06-05T06:38:01;8.80;54.70
59973;DHT22;55298;-36.624;-64.282;2023-06-05T06:40:29;8.80;54.60
59973;DHT22;55298;-36.624;-64.282;2023-06-05T06:42:58;8.80;54.60
59973;DHT22;55298;-36.624;-64.282;2023-06-05T06:45:25;8.80;55.10
59973;DHT22;55298;-36.624;-64.282;2023-06-05T06:47:53;8.80;54.40
59973;DHT22;55298;-36.624;-64.282;2023-06-05T06:50:21;8.80;54.40
59973;DHT22;55298;-36.624;-64.282;2023-06-05T06:52:49;8.70;54.30
59973;DHT22;55298;-36.624;-64.282;2023-06-05T06:55:17;8.70;54.80
59973;DHT22;55298;-36.624;-64.282;2023-06-05T06:57:45;8.70;54.60
59973;DHT22;55298;-36.624;-64.282;2023-06-05T07:00:13;8.70;54.60
59973;DHT22;55298;-36.624;-64.282;2023-06-05T07:02:41;8.70;54.40
59973;DHT22;55298;-36.624;-64.282;2023-06-05T07:05:10;8.70;54.40
59973;DHT22;55298;-36.624;-64.282;2023-06-05T07:07:38;8.70;54.50
59973;DHT22;55298;-36.624;-64.282;2023-06-05T07:10:06;8.60;54.50
59973;DHT22;55298;-36.624;-64.282;2023-06-05T07:12:34;8.60;54.50
59973;DHT22;55298;-36.624;-64.282;2023-06-05T07:15:02;8.60;54.70
59973;DHT22;55298;-36.624;-64.282;2023-06-05T07:17:29;8.50;54.70
59973;DHT22;55298;-36.624;-64.282;2023-06-05T07:19:57;8.50;54.80
59973;DHT22;55298;-36.624;-64.282;2023-06-05T07:22:26;8.50;54.90
59973;DHT22;55298;-36.624;-64.282;2023-06-05T07:24:56;8.50;54.80
59973;DHT22;55298;-36.624;-64.282;2023-06-05T07:27:24;8.50;54.80
59973;DHT22;55298;-36.624;-64.282;2023-06-05T07:29:52;8.50;55.10
59973;DHT22;55298;-36.624;-64.282;2023-06-05T07:32:20;8.50;55.10
59973;DHT22;55298;-36.624;-64.282;2023-06-05T07:34:47;8.50;55.30
59973;DHT22;55298;-36.624;-64.282;2023-06-05T07:37:15;8.50;55.30
59973;DHT22;55298;-36.624;-64.282;2023-06-05T07:39:43;8.50;55.60
59973;DHT22;55298;-36.624;-64.282;2023-06-05T07:42:10;8.50;55.60
59973;DHT22;55298;-36.624;-64.282;2023-06-05T07:44:38;8.50;56.00
59973;DHT22;55298;-36.624;-64.282;2023-06-05T07:47:06;8.50;55.90
59973;DHT22;55298;-36.624;-64.282;2023-06-05T07:49:34;8.60;55.90
59973;DHT22;55298;-36.624;-64.282;2023-06-05T07:52:02;8.50;56.10
59973;DHT22;55298;-36.624;-64.282;2023-06-05T07:54:29;8.50;55.90
59973;DHT22;55298;-36.624;-64.282;2023-06-05T07:56:57;8.50;56.30
59973;DHT22;55298;-36.624;-64.282;2023-06-05T07:59:25;8.50;56.60
59973;DHT22;55298;-36.624;-64.282;2023-06-05T08:01:55;8.50;56.70
59973;DHT22;55298;-36.624;-64.282;2023-06-05T08:04:22;8.50;56.70
59973;DHT22;55298;-36.624;-64.282;2023-06-05T08:06:52;8.50;56.60
59973;DHT22;55298;-36.624;-64.282;2023-06-05T08:09:20;8.50;56.40
59973;DHT22;55298;-36.624;-64.282;2023-06-05T08:11:47;8.40;56.90
59973;DHT22;55298;-36.624;-64.282;2023-06-05T08:14:16;8.30;57.10
59973;DHT22;55298;-36.624;-64.282;2023-06-05T08:16:44;8.30;57.20
59973;DHT22;55298;-36.624;-64.282;2023-06-05T08:19:12;8.30;57.20
59973;DHT22;55298;-36.624;-64.282;2023-06-05T08:21:39;8.30;57.00
59973;DHT22;55298;-36.624;-64.282;2023-06-05T08:24:07;8.30;57.20
59973;DHT22;55298;-36.624;-64.282;2023-06-05T08:26:35;8.30;57.80
59973;DHT22;55298;-36.624;-64.282;2023-06-05T08:29:03;8.30;58.50
59973;DHT22;55298;-36.624;-64.282;2023-06-05T08:31:31;8.20;58.00
59973;DHT22;55298;-36.624;-64.282;2023-06-05T08:34:04;8.20;57.30
59973;DHT22;55298;-36.624;-64.282;2023-06-05T08:36:32;8.20;57.80
59973;DHT22;55298;-36.624;-64.282;2023-06-05T08:39:02;8.20;58.10
59973;DHT22;55298;-36.624;-64.282;2023-06-05T08:41:31;8.20;58.30
59973;DHT22;55298;-36.624;-64.282;2023-06-05T08:43:59;8.20;58.30
59973;DHT22;55298;-36.624;-64.282;2023-06-05T08:46:29;8.10;57.90
59973;DHT22;55298;-36.624;-64.282;2023-06-05T08:48:58;8.10;58.10
59973;DHT22;55298;-36.624;-64.282;2023-06-05T08:51:30;8.10;58.30
59973;DHT22;55298;-36.624;-64.282;2023-06-05T08:54:03;8.10;58.10
59973;DHT22;55298;-36.624;-64.282;2023-06-05T08:56:34;8.00;58.50
59973;DHT22;55298;-36.624;-64.282;2023-06-05T08:59:05;8.00;58.90
59973;DHT22;55298;-36.624;-64.282;2023-06-05T09:01:33;8.00;59.20
59973;DHT22;55298;-36.624;-64.282;2023-06-05T09:04:02;7.80;59.30
59973;DHT22;55298;-36.624;-64.282;2023-06-05T09:06:30;7.80;59.70
59973;DHT22;55298;-36.624;-64.282;2023-06-05T09:09:00;7.80;59.70
59973;DHT22;55298;-36.624;-64.282;2023-06-05T09:11:30;7.80;60.00
59973;DHT22;55298;-36.624;-64.282;2023-06-05T09:14:00;7.70;59.90
59973;DHT22;55298;-36.624;-64.282;2023-06-05T09:16:39;7.60;60.30
59973;DHT22;55298;-36.624;-64.282;2023-06-05T09:19:09;7.60;61.00
59973;DHT22;55298;-36.624;-64.282;2023-06-05T09:21:38;7.60;61.30
59973;DHT22;55298;-36.624;-64.282;2023-06-05T09:24:25;7.60;60.70
59973;DHT22;55298;-36.624;-64.282;2023-06-05T09:26:59;7.60;61.90
59973;DHT22;55298;-36.624;-64.282;2023-06-05T09:29:33;7.50;62.20
59973;DHT22;55298;-36.624;-64.282;2023-06-05T09:32:05;7.50;62.00
59973;DHT22;55298;-36.624;-64.282;2023-06-05T09:34:36;7.50;62.10
59973;DHT22;55298;-36.624;-64.282;2023-06-05T09:37:06;7.50;62.00
59973;DHT22;55298;-36.624;-64.282;2023-06-05T09:39:38;7.40;62.60
59973;DHT22;55298;-36.624;-64.282;2023-06-05T09:42:07;7.40;62.70
59973;DHT22;55298;-36.624;-64.282;2023-06-05T09:44:36;7.40;62.60
59973;DHT22;55298;-36.624;-64.282;2023-06-05T09:47:12;7.30;62.80
59973;DHT22;55298;-36.624;-64.282;2023-06-05T09:49:48;7.40;62.70
59973;DHT22;55298;-36.624;-64.282;2023-06-05T09:52:17;7.50;63.00
59973;DHT22;55298;-36.624;-64.282;2023-06-05T09:54:49;7.40;63.30
59973;DHT22;55298;-36.624;-64.282;2023-06-05T09:57:17;7.30;62.30
59973;DHT22;55298;-36.624;-64.282;2023-06-05T09:59:50;7.30;63.00
59973;DHT22;55298;-36.624;-64.282;2023-06-05T10:02:23;7.30;62.90
59973;DHT22;55298;-36.624;-64.282;2023-06-05T10:05:01;7.30;63.20
59973;DHT22;55298;-36.624;-64.282;2023-06-05T10:07:37;7.30;63.60
59973;DHT22;55298;-36.624;-64.282;2023-06-05T10:10:10;7.20;63.80
59973;DHT22;55298;-36.624;-64.282;2023-06-05T10:12:38;7.20;63.60
59973;DHT22;55298;-36.624;-64.282;2023-06-05T10:15:07;7.20;64.10
59973;DHT22;55298;-36.624;-64.282;2023-06-05T10:17:38;7.20;64.40
59973;DHT22;55298;-36.624;-64.282;2023-06-05T10:20:08;7.20;64.40
59973;DHT22;55298;-36.624;-64.282;2023-06-05T10:22:39;7.10;64.10
59973;DHT22;55298;-36.624;-64.282;2023-06-05T10:25:09;7.10;64.70
59973;DHT22;55298;-36.624;-64.282;2023-06-05T10:27:59;7.10;64.60
59973;DHT22;55298;-36.624;-64.282;2023-06-05T10:30:59;7.10;64.10
59973;DHT22;55298;-36.624;-64.282;2023-06-05T10:33:40;7.10;64.70
59973;DHT22;55298;-36.624;-64.282;2023-06-05T10:36:26;7.10;64.80
59973;DHT22;55298;-36.624;-64.282;2023-06-05T10:38:59;7.20;64.50
59973;DHT22;55298;-36.624;-64.282;2023-06-05T10:41:31;7.20;64.00
59973;DHT22;55298;-36.624;-64.282;2023-06-05T10:44:00;7.20;64.70
59973;DHT22;55298;-36.624;-64.282;2023-06-05T10:46:30;7.20;64.40
59973;DHT22;55298;-36.624;-64.282;2023-06-05T10:49:10;7.20;65.00
59973;DHT22;55298;-36.624;-64.282;2023-06-05T10:51:42;7.10;64.50
59973;DHT22;55298;-36.624;-64.282;2023-06-05T10:54:11;7.10;66.00
59973;DHT22;55298;-36.624;-64.282;2023-06-05T10:56:54;7.20;64.60
59973;DHT22;55298;-36.624;-64.282;2023-06-05T10:59:26;7.20;64.70
59973;DHT22;55298;-36.624;-64.282;2023-06-05T11:05:04;7.20;65.70
59973;DHT22;55298;-36.624;-64.282;2023-06-05T11:07:33;7.10;65.50
59973;DHT22;55298;-36.624;-64.282;2023-06-05T11:10:18;7.00;66.00
59973;DHT22;55298;-36.624;-64.282;2023-06-05T11:12:55;7.10;65.80
59973;DHT22;55298;-36.624;-64.282;2023-06-05T11:15:38;7.00;66.20
59973;DHT22;55298;-36.624;-64.282;2023-06-05T11:20:54;7.10;66.30
59973;DHT22;55298;-36.624;-64.282;2023-06-05T11:23:23;7.00;66.30
59973;DHT22;55298;-36.624;-64.282;2023-06-05T11:25:56;7.00;66.40
59973;DHT22;55298;-36.624;-64.282;2023-06-05T11:28:42;7.10;66.60
59973;DHT22;55298;-36.624;-64.282;2023-06-05T11:31:11;7.00;66.40
59973;DHT22;55298;-36.624;-64.282;2023-06-05T11:33:40;7.00;67.10
59973;DHT22;55298;-36.624;-64.282;2023-06-05T11:36:08;7.00;67.00
59973;DHT22;55298;-36.624;-64.282;2023-06-05T11:38:43;7.10;67.20
59973;DHT22;55298;-36.624;-64.282;2023-06-05T11:41:19;7.10;67.50
59973;DHT22;55298;-36.624;-64.282;2023-06-05T11:43:48;7.30;66.60
59973;DHT22;55298;-36.624;-64.282;2023-06-05T11:46:16;7.30;67.10
59973;DHT22;55298;-36.624;-64.282;2023-06-05T11:48:45;7.50;66.20
59973;DHT22;55298;-36.624;-64.282;2023-06-05T11:51:16;7.50;66.80
59973;DHT22;55298;-36.624;-64.282;2023-06-05T11:53:45;7.70;65.90
59973;DHT22;55298;-36.624;-64.282;2023-06-05T11:56:16;7.80;65.20
59973;DHT22;55298;-36.624;-64.282;2023-06-05T11:58:44;7.90;65.80
59973;DHT22;55298;-36.624;-64.282;2023-06-05T12:01:15;8.90;62.00
59973;DHT22;55298;-36.624;-64.282;2023-06-05T12:04:04;8.90;62.50
59973;DHT22;55298;-36.624;-64.282;2023-06-05T12:06:32;9.40;59.60
59973;DHT22;55298;-36.624;-64.282;2023-06-05T12:09:10;9.40;59.10
59973;DHT22;55298;-36.624;-64.282;2023-06-05T12:11:40;9.30;59.40
59973;DHT22;55298;-36.624;-64.282;2023-06-05T12:14:11;9.20;59.70
59973;DHT22;55298;-36.624;-64.282;2023-06-05T12:16:43;9.00;59.90
59973;DHT22;55298;-36.624;-64.282;2023-06-05T12:19:14;9.00;60.40
59973;DHT22;55298;-36.624;-64.282;2023-06-05T12:22:01;9.00;60.50
59973;DHT22;55298;-36.624;-64.282;2023-06-05T12:24:29;9.00;60.90
59973;DHT22;55298;-36.624;-64.282;2023-06-05T12:27:08;9.20;60.90
59973;DHT22;55298;-36.624;-64.282;2023-06-05T12:29:39;9.10;60.70
59973;DHT22;55298;-36.624;-64.282;2023-06-05T12:32:23;9.20;60.80
59973;DHT22;55298;-36.624;-64.282;2023-06-05T12:34:51;9.20;61.00
59973;DHT22;55298;-36.624;-64.282;2023-06-05T12:37:34;9.20;60.50
59973;DHT22;55298;-36.624;-64.282;2023-06-05T12:40:07;9.40;60.60
59973;DHT22;55298;-36.624;-64.282;2023-06-05T12:42:39;9.40;60.30
59973;DHT22;55298;-36.624;-64.282;2023-06-05T12:45:11;9.40;61.00
59973;DHT22;55298;-36.624;-64.282;2023-06-05T12:47:40;9.50;61.00
59973;DHT22;55298;-36.624;-64.282;2023-06-05T12:50:10;9.60;60.80
59973;DHT22;55298;-36.624;-64.282;2023-06-05T12:52:40;9.90;60.30
59973;DHT22;55298;-36.624;-64.282;2023-06-05T12:55:12;9.90;61.00
59973;DHT22;55298;-36.624;-64.282;2023-06-05T12:57:41;10.30;60.00
59973;DHT22;55298;-36.624;-64.282;2023-06-05T13:00:10;10.80;58.80
59973;DHT22;55298;-36.624;-64.282;2023-06-05T13:02:42;11.50;57.80
59973;DHT22;55298;-36.624;-64.282;2023-06-05T13:05:12;12.30;55.90
59973;DHT22;55298;-36.624;-64.282;2023-06-05T13:07:40;12.90;54.40
59973;DHT22;55298;-36.624;-64.282;2023-06-05T13:10:09;13.40;52.90
59973;DHT22;55298;-36.624;-64.282;2023-06-05T13:12:39;13.50;52.50
59973;DHT22;55298;-36.624;-64.282;2023-06-05T13:15:10;13.50;51.80
59973;DHT22;55298;-36.624;-64.282;2023-06-05T13:17:38;13.50;52.30
59973;DHT22;55298;-36.624;-64.282;2023-06-05T13:20:10;13.80;51.70
59973;DHT22;55298;-36.624;-64.282;2023-06-05T13:22:39;14.40;50.70
59973;DHT22;55298;-36.624;-64.282;2023-06-05T13:25:11;14.90;49.40
59973;DHT22;55298;-36.624;-64.282;2023-06-05T13:27:39;15.10;48.30
59973;DHT22;55298;-36.624;-64.282;2023-06-05T13:30:07;15.40;48.60
59973;DHT22;55298;-36.624;-64.282;2023-06-05T13:32:36;15.60;47.30
59973;DHT22;55298;-36.624;-64.282;2023-06-05T13:35:06;15.70;47.10
59973;DHT22;55298;-36.624;-64.282;2023-06-05T13:37:39;15.60;46.30
59973;DHT22;55298;-36.624;-64.282;2023-06-05T13:40:14;15.30;46.40
59973;DHT22;55298;-36.624;-64.282;2023-06-05T13:42:41;15.00;47.20
59973;DHT22;55298;-36.624;-64.282;2023-06-05T13:45:11;14.90;47.40
59973;DHT22;55298;-36.624;-64.282;2023-06-05T13:47:39;14.60;47.90
59973;DHT22;55298;-36.624;-64.282;2023-06-05T13:50:07;14.30;48.30
59973;DHT22;55298;-36.624;-64.282;2023-06-05T13:52:35;14.30;48.80
59973;DHT22;55298;-36.624;-64.282;2023-06-05T13:55:04;14.20;49.40
59973;DHT22;55298;-36.624;-64.282;2023-06-05T13:57:32;14.20;49.30
59973;DHT22;55298;-36.624;-64.282;2023-06-05T14:00:04;14.10;49.40
59973;DHT22;55298;-36.624;-64.282;2023-06-05T14:02:36;14.00;49.10
59973;DHT22;55298;-36.624;-64.282;2023-06-05T14:05:05;13.80;49.60
59973;DHT22;55298;-36.624;-64.282;2023-06-05T14:07:37;13.80;50.30
59973;DHT22;55298;-36.624;-64.282;2023-06-05T14:10:06;13.80;50.40
59973;DHT22;55298;-36.624;-64.282;2023-06-05T14:12:36;13.60;50.60
59973;DHT22;55298;-36.624;-64.282;2023-06-05T14:15:05;13.80;51.00
59973;DHT22;55298;-36.624;-64.282;2023-06-05T14:17:33;13.90;50.80
59973;DHT22;55298;-36.624;-64.282;2023-06-05T14:20:01;13.90;50.70
59973;DHT22;55298;-36.624;-64.282;2023-06-05T14:22:29;14.00;50.60
59973;DHT22;55298;-36.624;-64.282;2023-06-05T14:24:59;14.10;50.50
59973;DHT22;55298;-36.624;-64.282;2023-06-05T14:27:26;14.20;50.00
59973;DHT22;55298;-36.624;-64.282;2023-06-05T14:29:54;14.30;49.80
59973;DHT22;55298;-36.624;-64.282;2023-06-05T14:32:23;14.30;49.80
59973;DHT22;55298;-36.624;-64.282;2023-06-05T14:34:51;14.40;50.20
59973;DHT22;55298;-36.624;-64.282;2023-06-05T14:37:19;14.50;50.40
59973;DHT22;55298;-36.624;-64.282;2023-06-05T14:39:50;14.80;49.80
59973;DHT22;55298;-36.624;-64.282;2023-06-05T14:42:21;15.00;49.10
59973;DHT22;55298;-36.624;-64.282;2023-06-05T14:44:53;15.00;49.10
59973;DHT22;55298;-36.624;-64.282;2023-06-05T14:47:21;15.10;49.10
59973;DHT22;55298;-36.624;-64.282;2023-06-05T14:49:52;14.90;48.90
59973;DHT22;55298;-36.624;-64.282;2023-06-05T14:52:23;14.90;49.30
59973;DHT22;55298;-36.624;-64.282;2023-06-05T14:54:51;14.80;48.90
59973;DHT22;55298;-36.624;-64.282;2023-06-05T14:57:18;14.90;48.70
59973;DHT22;55298;-36.624;-64.282;2023-06-05T14:59:47;15.00;48.60
59973;DHT22;55298;-36.624;-64.282;2023-06-05T15:02:14;15.10;48.50
59973;DHT22;55298;-36.624;-64.282;2023-06-05T15:04:42;15.20;48.50
59973;DHT22;55298;-36.624;-64.282;2023-06-05T15:07:10;15.30;48.10
59973;DHT22;55298;-36.624;-64.282;2023-06-05T15:09:38;15.30;48.10
59973;DHT22;55298;-36.624;-64.282;2023-06-05T15:12:06;15.40;47.90
59973;DHT22;55298;-36.624;-64.282;2023-06-05T15:14:35;15.40;47.80
59973;DHT22;55298;-36.624;-64.282;2023-06-05T15:17:04;15.50;48.10
59973;DHT22;55298;-36.624;-64.282;2023-06-05T15:19:37;15.70;47.80